sensor_id;sensor_type;location;lat;lon;timestamp;P1;durP1;ratioP1;P2;durP2;ratioP2
16577;SDS011;8401;52.528;13.340;2023-02-07T00:01:15;22.93;;;14.17;;
16577;SDS011;8401;52.528;13.340;2023-02-07T00:03:42;25.57;;;14.83;;
16577;SDS011;8401;52.528;13.340;2023-02-07T00:08:36;21.67;;;14.43;;
16577;SDS011;8401;52.528;13.340;2023-02-07T00:11:07;25.67;;;14.73;;
16577;SDS011;8401;52.528;13.340;2023-02-07T00:13:34;24.43;;;13.93;;
16577;SDS011;8401;52.528;13.340;2023-02-07T00:16:00;25.73;;;14.57;;
16577;SDS011;8401;52.528;13.340;2023-02-07T00:18:28;24.10;;;13.43;;
16577;SDS011;8401;52.528;13.340;2023-02-07T00:21:01;23.67;;;14.17;;
16577;SDS011;8401;52.528;13.340;2023-02-07T00:23:29;21.73;;;13.60;;
16577;SDS011;8401;52.528;13.340;2023-02-07T00:25:55;23.73;;;14.10;;
16577;SDS011;8401;52.528;13.340;2023-02-07T00:28:21;26.93;;;14.50;;
16577;SDS011;8401;52.528;13.340;2023-02-07T00:30:46;26.07;;;15.30;;
16577;SDS011;8401;52.528;13.340;2023-02-07T00:33:12;25.60;;;14.43;;
16577;SDS011;8401;52.528;13.340;2023-02-07T00:35:38;24.00;;;15.63;;
16577;SDS011;8401;52.528;13.340;2023-02-07T00:38:04;23.30;;;14.07;;
16577;SDS011;8401;52.528;13.340;2023-02-07T00:40:29;28.27;;;14.97;;
16577;SDS011;8401;52.528;13.340;2023-02-07T00:42:55;26.17;;;14.90;;
16577;SDS011;8401;52.528;13.340;2023-02-07T00:45:20;27.37;;;14.00;;
16577;SDS011;8401;52.528;13.340;2023-02-07T00:47:46;21.63;;;14.00;;
16577;SDS011;8401;52.528;13.340;2023-02-07T00:50:12;26.27;;;13.27;;
16577;SDS011;8401;52.528;13.340;2023-02-07T00:52:38;24.97;;;13.83;;
16577;SDS011;8401;52.528;13.340;2023-02-07T00:55:03;24.50;;;14.50;;
16577;SDS011;8401;52.528;13.340;2023-02-07T00:57:29;27.30;;;14.50;;
16577;SDS011;8401;52.528;13.340;2023-02-07T00:59:55;24.00;;;13.87;;
16577;SDS011;8401;52.528;13.340;2023-02-07T01:02:20;24.33;;;14.27;;
16577;SDS011;8401;52.528;13.340;2023-02-07T01:04:46;22.93;;;13.17;;
16577;SDS011;8401;52.528;13.340;2023-02-07T01:07:11;21.00;;;13.20;;
16577;SDS011;8401;52.528;13.340;2023-02-07T01:09:37;25.60;;;14.17;;
16577;SDS011;8401;52.528;13.340;2023-02-07T01:12:03;26.93;;;14.93;;
16577;SDS011;8401;52.528;13.340;2023-02-07T01:14:29;25.23;;;15.63;;
16577;SDS011;8401;52.528;13.340;2023-02-07T01:16:55;27.93;;;16.50;;
16577;SDS011;8401;52.528;13.340;2023-02-07T01:19:21;27.73;;;17.40;;
16577;SDS011;8401;52.528;13.340;2023-02-07T01:21:46;32.23;;;17.47;;
16577;SDS011;8401;52.528;13.340;2023-02-07T01:24:12;30.30;;;16.60;;
16577;SDS011;8401;52.528;13.340;2023-02-07T01:26:38;29.67;;;16.43;;
16577;SDS011;8401;52.528;13.340;2023-02-07T01:29:04;27.90;;;16.17;;
16577;SDS011;8401;52.528;13.340;2023-02-07T01:31:30;27.53;;;17.03;;
16577;SDS011;8401;52.528;13.340;2023-02-07T01:33:57;29.10;;;17.27;;
16577;SDS011;8401;52.528;13.340;2023-02-07T01:36:24;31.43;;;16.67;;
16577;SDS011;8401;52.528;13.340;2023-02-07T01:38:51;25.70;;;15.80;;
16577;SDS011;8401;52.528;13.340;2023-02-07T01:41:18;26.50;;;17.13;;
16577;SDS011;8401;52.528;13.340;2023-02-07T01:46:44;31.23;;;18.30;;
16577;SDS011;8401;52.528;13.340;2023-02-07T01:49:10;27.93;;;17.03;;
16577;SDS011;8401;52.528;13.340;2023-02-07T01:51:37;31.53;;;18.30;;
16577;SDS011;8401;52.528;13.340;2023-02-07T01:54:07;31.40;;;17.67;;
16577;SDS011;8401;52.528;13.340;2023-02-07T01:56:36;32.67;;;17.47;;
16577;SDS011;8401;52.528;13.340;2023-02-07T01:59:05;28.87;;;17.00;;
16577;SDS011;8401;52.528;13.340;2023-02-07T02:01:31;29.50;;;17.03;;
16577;SDS011;8401;52.528;13.340;2023-02-07T02:03:57;32.07;;;18.20;;
16577;SDS011;8401;52.528;13.340;2023-02-07T02:06:23;27.33;;;17.37;;
16577;SDS011;8401;52.528;13.340;2023-02-07T02:08:52;34.70;;;18.23;;
16577;SDS011;8401;52.528;13.340;2023-02-07T02:11:35;30.33;;;17.90;;
16577;SDS011;8401;52.528;13.340;2023-02-07T02:17:03;29.90;;;17.50;;
16577;SDS011;8401;52.528;13.340;2023-02-07T02:22:37;32.50;;;17.93;;
16577;SDS011;8401;52.528;13.340;2023-02-07T02:42:10;31.13;;;17.97;;
16577;SDS011;8401;52.528;13.340;2023-02-07T02:44:37;33.37;;;19.17;;
16577;SDS011;8401;52.528;13.340;2023-02-07T02:47:08;30.47;;;17.70;;
16577;SDS011;8401;52.528;13.340;2023-02-07T02:49:35;30.43;;;18.00;;
16577;SDS011;8401;52.528;13.340;2023-02-07T02:52:03;30.03;;;16.97;;
16577;SDS011;8401;52.528;13.340;2023-02-07T02:54:33;24.97;;;16.80;;
16577;SDS011;8401;52.528;13.340;2023-02-07T02:57:25;32.37;;;18.27;;
16577;SDS011;8401;52.528;13.340;2023-02-07T03:16:23;32.47;;;18.63;;
16577;SDS011;8401;52.528;13.340;2023-02-07T03:21:32;34.73;;;18.73;;
16577;SDS011;8401;52.528;13.340;2023-02-07T03:24:13;34.63;;;18.37;;
16577;SDS011;8401;52.528;13.340;2023-02-07T03:26:42;33.77;;;18.73;;
16577;SDS011;8401;52.528;13.340;2023-02-07T03:29:10;28.43;;;16.37;;
16577;SDS011;8401;52.528;13.340;2023-02-07T03:31:40;30.60;;;17.57;;
16577;SDS011;8401;52.528;13.340;2023-02-07T03:34:09;29.20;;;16.37;;
16577;SDS011;8401;52.528;13.340;2023-02-07T03:39:19;24.37;;;15.53;;
16577;SDS011;8401;52.528;13.340;2023-02-07T03:41:51;26.10;;;15.30;;
16577;SDS011;8401;52.528;13.340;2023-02-07T03:44:20;28.00;;;16.33;;
16577;SDS011;8401;52.528;13.340;2023-02-07T03:46:49;28.60;;;16.33;;
16577;SDS011;8401;52.528;13.340;2023-02-07T03:49:15;30.47;;;16.60;;
16577;SDS011;8401;52.528;13.340;2023-02-07T03:51:44;26.13;;;15.03;;
16577;SDS011;8401;52.528;13.340;2023-02-07T03:54:11;23.53;;;15.57;;
16577;SDS011;8401;52.528;13.340;2023-02-07T03:56:37;24.97;;;15.60;;
16577;SDS011;8401;52.528;13.340;2023-02-07T03:59:03;25.83;;;15.60;;
16577;SDS011;8401;52.528;13.340;2023-02-07T04:01:29;21.63;;;14.60;;
16577;SDS011;8401;52.528;13.340;2023-02-07T04:03:54;25.13;;;13.93;;
16577;SDS011;8401;52.528;13.340;2023-02-07T04:06:20;27.70;;;15.50;;
16577;SDS011;8401;52.528;13.340;2023-02-07T04:08:46;25.43;;;16.10;;
16577;SDS011;8401;52.528;13.340;2023-02-07T04:11:11;25.80;;;15.93;;
16577;SDS011;8401;52.528;13.340;2023-02-07T04:13:37;25.93;;;16.67;;
16577;SDS011;8401;52.528;13.340;2023-02-07T04:16:03;27.60;;;15.57;;
16577;SDS011;8401;52.528;13.340;2023-02-07T04:18:30;27.47;;;16.47;;
16577;SDS011;8401;52.528;13.340;2023-02-07T04:21:02;26.10;;;16.63;;
16577;SDS011;8401;52.528;13.340;2023-02-07T04:23:30;31.63;;;17.67;;
16577;SDS011;8401;52.528;13.340;2023-02-07T04:25:56;32.30;;;17.47;;
16577;SDS011;8401;52.528;13.340;2023-02-07T04:28:22;28.87;;;17.33;;
16577;SDS011;8401;52.528;13.340;2023-02-07T04:30:48;28.70;;;17.20;;
16577;SDS011;8401;52.528;13.340;2023-02-07T04:33:14;27.37;;;16.03;;
16577;SDS011;8401;52.528;13.340;2023-02-07T04:35:40;29.37;;;17.00;;
16577;SDS011;8401;52.528;13.340;2023-02-07T04:38:06;29.63;;;17.30;;
16577;SDS011;8401;52.528;13.340;2023-02-07T04:40:32;28.27;;;16.43;;
16577;SDS011;8401;52.528;13.340;2023-02-07T04:42:57;28.70;;;15.93;;
16577;SDS011;8401;52.528;13.340;2023-02-07T04:45:23;28.17;;;16.43;;
16577;SDS011;8401;52.528;13.340;2023-02-07T04:47:49;26.47;;;15.40;;
16577;SDS011;8401;52.528;13.340;2023-02-07T04:50:14;25.47;;;16.37;;
16577;SDS011;8401;52.528;13.340;2023-02-07T04:52:41;28.00;;;15.60;;
16577;SDS011;8401;52.528;13.340;2023-02-07T04:55:07;23.10;;;15.57;;
16577;SDS011;8401;52.528;13.340;2023-02-07T04:57:33;24.97;;;15.13;;
16577;SDS011;8401;52.528;13.340;2023-02-07T04:59:59;23.57;;;15.53;;
16577;SDS011;8401;52.528;13.340;2023-02-07T05:02:25;24.63;;;14.67;;
16577;SDS011;8401;52.528;13.340;2023-02-07T05:04:50;26.93;;;15.83;;
16577;SDS011;8401;52.528;13.340;2023-02-07T05:07:16;24.37;;;15.03;;
16577;SDS011;8401;52.528;13.340;2023-02-07T05:09:41;22.97;;;14.20;;
16577;SDS011;8401;52.528;13.340;2023-02-07T05:12:07;24.03;;;14.73;;
16577;SDS011;8401;52.528;13.340;2023-02-07T05:14:33;23.83;;;14.53;;
16577;SDS011;8401;52.528;13.340;2023-02-07T05:16:58;30.17;;;14.23;;
16577;SDS011;8401;52.528;13.340;2023-02-07T05:19:24;26.80;;;14.47;;
16577;SDS011;8401;52.528;13.340;2023-02-07T05:21:50;25.87;;;14.30;;
16577;SDS011;8401;52.528;13.340;2023-02-07T05:24:15;24.47;;;14.13;;
16577;SDS011;8401;52.528;13.340;2023-02-07T05:26:41;25.53;;;15.27;;
16577;SDS011;8401;52.528;13.340;2023-02-07T05:29:07;23.17;;;14.63;;
16577;SDS011;8401;52.528;13.340;2023-02-07T05:31:32;25.20;;;14.47;;
16577;SDS011;8401;52.528;13.340;2023-02-07T05:34:16;27.00;;;15.67;;
16577;SDS011;8401;52.528;13.340;2023-02-07T05:36:42;26.83;;;16.07;;
16577;SDS011;8401;52.528;13.340;2023-02-07T05:39:08;26.93;;;15.97;;
16577;SDS011;8401;52.528;13.340;2023-02-07T05:41:33;33.20;;;17.20;;
16577;SDS011;8401;52.528;13.340;2023-02-07T05:43:59;33.43;;;18.30;;
16577;SDS011;8401;52.528;13.340;2023-02-07T05:46:24;27.47;;;16.57;;
16577;SDS011;8401;52.528;13.340;2023-02-07T05:48:50;24.37;;;15.90;;
16577;SDS011;8401;52.528;13.340;2023-02-07T05:51:16;30.90;;;16.80;;
16577;SDS011;8401;52.528;13.340;2023-02-07T05:53:41;26.53;;;15.87;;
16577;SDS011;8401;52.528;13.340;2023-02-07T05:56:07;25.63;;;15.47;;
16577;SDS011;8401;52.528;13.340;2023-02-07T05:58:32;27.20;;;15.50;;
16577;SDS011;8401;52.528;13.340;2023-02-07T06:00:58;24.53;;;15.30;;
16577;SDS011;8401;52.528;13.340;2023-02-07T06:03:24;27.33;;;16.33;;
16577;SDS011;8401;52.528;13.340;2023-02-07T06:05:50;26.03;;;15.43;;
16577;SDS011;8401;52.528;13.340;2023-02-07T06:08:15;26.37;;;16.77;;
16577;SDS011;8401;52.528;13.340;2023-02-07T06:10:41;28.60;;;16.93;;
16577;SDS011;8401;52.528;13.340;2023-02-07T06:13:06;26.60;;;16.37;;
16577;SDS011;8401;52.528;13.340;2023-02-07T06:15:32;25.67;;;15.13;;
16577;SDS011;8401;52.528;13.340;2023-02-07T06:17:58;29.80;;;16.77;;
16577;SDS011;8401;52.528;13.340;2023-02-07T06:20:23;27.53;;;15.87;;
16577;SDS011;8401;52.528;13.340;2023-02-07T06:22:49;25.40;;;15.77;;
16577;SDS011;8401;52.528;13.340;2023-02-07T06:25:16;24.37;;;15.27;;
16577;SDS011;8401;52.528;13.340;2023-02-07T06:27:42;28.83;;;17.70;;
16577;SDS011;8401;52.528;13.340;2023-02-07T06:30:08;37.47;;;22.10;;
16577;SDS011;8401;52.528;13.340;2023-02-07T06:32:35;39.50;;;22.60;;
16577;SDS011;8401;52.528;13.340;2023-02-07T06:35:01;36.03;;;22.57;;
16577;SDS011;8401;52.528;13.340;2023-02-07T06:37:26;38.37;;;22.00;;
16577;SDS011;8401;52.528;13.340;2023-02-07T06:39:52;37.17;;;20.50;;
16577;SDS011;8401;52.528;13.340;2023-02-07T06:42:18;34.70;;;20.33;;
16577;SDS011;8401;52.528;13.340;2023-02-07T06:44:43;40.83;;;22.50;;
16577;SDS011;8401;52.528;13.340;2023-02-07T06:47:09;38.70;;;22.27;;
16577;SDS011;8401;52.528;13.340;2023-02-07T06:49:35;33.97;;;21.60;;
16577;SDS011;8401;52.528;13.340;2023-02-07T06:52:00;33.60;;;21.13;;
16577;SDS011;8401;52.528;13.340;2023-02-07T06:54:26;36.40;;;22.43;;
16577;SDS011;8401;52.528;13.340;2023-02-07T06:56:52;37.07;;;23.00;;
16577;SDS011;8401;52.528;13.340;2023-02-07T06:59:17;34.57;;;21.27;;
16577;SDS011;8401;52.528;13.340;2023-02-07T07:01:43;36.10;;;22.30;;
16577;SDS011;8401;52.528;13.340;2023-02-07T07:04:09;40.60;;;23.00;;
16577;SDS011;8401;52.528;13.340;2023-02-07T07:06:34;39.80;;;22.03;;
16577;SDS011;8401;52.528;13.340;2023-02-07T07:09:00;38.70;;;21.70;;
16577;SDS011;8401;52.528;13.340;2023-02-07T07:11:26;37.73;;;21.20;;
16577;SDS011;8401;52.528;13.340;2023-02-07T07:13:51;39.33;;;21.53;;
16577;SDS011;8401;52.528;13.340;2023-02-07T07:16:17;39.00;;;21.20;;
16577;SDS011;8401;52.528;13.340;2023-02-07T07:18:42;33.30;;;20.83;;
16577;SDS011;8401;52.528;13.340;2023-02-07T07:21:08;34.43;;;20.70;;
16577;SDS011;8401;52.528;13.340;2023-02-07T07:23:34;37.80;;;20.60;;
16577;SDS011;8401;52.528;13.340;2023-02-07T07:26:00;34.47;;;19.33;;
16577;SDS011;8401;52.528;13.340;2023-02-07T07:28:26;33.27;;;19.20;;
16577;SDS011;8401;52.528;13.340;2023-02-07T07:30:52;32.40;;;20.67;;
16577;SDS011;8401;52.528;13.340;2023-02-07T07:33:18;33.80;;;20.30;;
16577;SDS011;8401;52.528;13.340;2023-02-07T07:35:43;36.97;;;22.17;;
16577;SDS011;8401;52.528;13.340;2023-02-07T07:38:09;39.23;;;23.37;;
16577;SDS011;8401;52.528;13.340;2023-02-07T07:40:35;34.37;;;21.90;;
16577;SDS011;8401;52.528;13.340;2023-02-07T07:43:01;40.53;;;23.57;;
16577;SDS011;8401;52.528;13.340;2023-02-07T07:45:27;37.77;;;23.87;;
16577;SDS011;8401;52.528;13.340;2023-02-07T07:47:52;38.70;;;22.53;;
16577;SDS011;8401;52.528;13.340;2023-02-07T07:50:18;41.90;;;24.93;;
16577;SDS011;8401;52.528;13.340;2023-02-07T07:52:44;39.70;;;23.70;;
16577;SDS011;8401;52.528;13.340;2023-02-07T07:55:09;40.90;;;23.70;;
16577;SDS011;8401;52.528;13.340;2023-02-07T07:57:35;35.10;;;22.37;;
16577;SDS011;8401;52.528;13.340;2023-02-07T08:00:02;36.67;;;22.37;;
16577;SDS011;8401;52.528;13.340;2023-02-07T08:02:29;36.93;;;22.53;;
16577;SDS011;8401;52.528;13.340;2023-02-07T08:04:55;35.17;;;22.07;;
16577;SDS011;8401;52.528;13.340;2023-02-07T08:07:21;33.17;;;22.37;;
16577;SDS011;8401;52.528;13.340;2023-02-07T08:09:46;34.13;;;20.90;;
16577;SDS011;8401;52.528;13.340;2023-02-07T08:12:12;34.47;;;20.93;;
16577;SDS011;8401;52.528;13.340;2023-02-07T08:14:37;31.83;;;19.50;;
16577;SDS011;8401;52.528;13.340;2023-02-07T08:17:03;29.60;;;18.47;;
16577;SDS011;8401;52.528;13.340;2023-02-07T08:19:29;31.80;;;17.60;;
16577;SDS011;8401;52.528;13.340;2023-02-07T08:21:54;31.73;;;17.63;;
16577;SDS011;8401;52.528;13.340;2023-02-07T08:24:20;28.97;;;17.53;;
16577;SDS011;8401;52.528;13.340;2023-02-07T08:26:45;26.20;;;16.83;;
16577;SDS011;8401;52.528;13.340;2023-02-07T08:29:11;31.27;;;19.70;;
16577;SDS011;8401;52.528;13.340;2023-02-07T08:31:37;34.03;;;20.43;;
16577;SDS011;8401;52.528;13.340;2023-02-07T08:34:03;28.93;;;17.50;;
16577;SDS011;8401;52.528;13.340;2023-02-07T08:36:28;28.63;;;17.20;;
16577;SDS011;8401;52.528;13.340;2023-02-07T08:38:54;27.03;;;16.30;;
16577;SDS011;8401;52.528;13.340;2023-02-07T08:41:20;27.60;;;15.90;;
16577;SDS011;8401;52.528;13.340;2023-02-07T08:43:45;25.97;;;15.87;;
16577;SDS011;8401;52.528;13.340;2023-02-07T08:46:11;30.23;;;15.53;;
16577;SDS011;8401;52.528;13.340;2023-02-07T08:48:36;25.10;;;14.90;;
16577;SDS011;8401;52.528;13.340;2023-02-07T08:51:03;25.30;;;14.47;;
16577;SDS011;8401;52.528;13.340;2023-02-07T08:53:30;26.07;;;15.20;;
16577;SDS011;8401;52.528;13.340;2023-02-07T08:55:56;25.77;;;15.53;;
16577;SDS011;8401;52.528;13.340;2023-02-07T08:58:22;26.83;;;15.00;;
16577;SDS011;8401;52.528;13.340;2023-02-07T09:00:47;24.07;;;15.47;;
16577;SDS011;8401;52.528;13.340;2023-02-07T09:03:13;23.10;;;14.60;;
16577;SDS011;8401;52.528;13.340;2023-02-07T09:05:39;23.67;;;14.50;;
16577;SDS011;8401;52.528;13.340;2023-02-07T09:08:05;23.20;;;13.30;;
16577;SDS011;8401;52.528;13.340;2023-02-07T09:10:30;22.40;;;12.93;;
16577;SDS011;8401;52.528;13.340;2023-02-07T09:12:56;23.70;;;14.83;;
16577;SDS011;8401;52.528;13.340;2023-02-07T09:15:22;24.60;;;13.83;;
16577;SDS011;8401;52.528;13.340;2023-02-07T09:17:48;24.50;;;13.77;;
16577;SDS011;8401;52.528;13.340;2023-02-07T09:20:14;28.03;;;15.43;;
16577;SDS011;8401;52.528;13.340;2023-02-07T09:22:39;20.53;;;13.50;;
16577;SDS011;8401;52.528;13.340;2023-02-07T09:25:37;26.80;;;14.27;;
16577;SDS011;8401;52.528;13.340;2023-02-07T09:28:03;23.87;;;14.77;;
16577;SDS011;8401;52.528;13.340;2023-02-07T09:30:29;25.83;;;14.50;;
16577;SDS011;8401;52.528;13.340;2023-02-07T09:32:56;26.10;;;14.17;;
16577;SDS011;8401;52.528;13.340;2023-02-07T09:35:22;23.30;;;13.30;;
16577;SDS011;8401;52.528;13.340;2023-02-07T09:37:48;22.40;;;13.37;;
16577;SDS011;8401;52.528;13.340;2023-02-07T09:40:16;23.17;;;13.23;;
16577;SDS011;8401;52.528;13.340;2023-02-07T09:43:26;22.20;;;13.43;;
16577;SDS011;8401;52.528;13.340;2023-02-07T09:45:39;24.80;;;13.33;;
16577;SDS011;8401;52.528;13.340;2023-02-07T09:48:19;22.00;;;12.90;;
16577;SDS011;8401;52.528;13.340;2023-02-07T09:50:55;22.37;;;12.80;;
16577;SDS011;8401;52.528;13.340;2023-02-07T09:53:25;19.90;;;12.97;;
16577;SDS011;8401;52.528;13.340;2023-02-07T09:55:58;23.27;;;12.73;;
16577;SDS011;8401;52.528;13.340;2023-02-07T09:58:32;21.57;;;13.63;;
16577;SDS011;8401;52.528;13.340;2023-02-07T10:01:21;22.53;;;12.77;;
16577;SDS011;8401;52.528;13.340;2023-02-07T10:06:37;24.00;;;13.70;;
16577;SDS011;8401;52.528;13.340;2023-02-07T10:09:07;21.37;;;13.47;;
16577;SDS011;8401;52.528;13.340;2023-02-07T10:11:41;24.87;;;13.83;;
16577;SDS011;8401;52.528;13.340;2023-02-07T10:14:26;25.13;;;14.20;;
16577;SDS011;8401;52.528;13.340;2023-02-07T10:22:54;18.83;;;13.03;;
16577;SDS011;8401;52.528;13.340;2023-02-07T10:28:27;20.17;;;12.03;;
16577;SDS011;8401;52.528;13.340;2023-02-07T10:31:00;19.70;;;11.83;;
16577;SDS011;8401;52.528;13.340;2023-02-07T10:33:32;17.13;;;11.97;;
16577;SDS011;8401;52.528;13.340;2023-02-07T10:36:05;18.70;;;12.70;;
16577;SDS011;8401;52.528;13.340;2023-02-07T10:41:24;20.50;;;14.00;;
16577;SDS011;8401;52.528;13.340;2023-02-07T10:43:59;20.43;;;14.13;;
16577;SDS011;8401;52.528;13.340;2023-02-07T10:46:25;20.77;;;14.00;;
16577;SDS011;8401;52.528;13.340;2023-02-07T10:48:51;22.30;;;15.57;;
16577;SDS011;8401;52.528;13.340;2023-02-07T10:51:28;20.70;;;14.10;;
16577;SDS011;8401;52.528;13.340;2023-02-07T10:54:06;18.37;;;13.20;;
16577;SDS011;8401;52.528;13.340;2023-02-07T10:56:34;21.27;;;14.97;;
16577;SDS011;8401;52.528;13.340;2023-02-07T10:59:05;21.10;;;14.63;;
16577;SDS011;8401;52.528;13.340;2023-02-07T11:01:52;21.10;;;14.43;;
16577;SDS011;8401;52.528;13.340;2023-02-07T11:04:41;23.30;;;15.27;;
16577;SDS011;8401;52.528;13.340;2023-02-07T11:07:12;30.43;;;20.03;;
16577;SDS011;8401;52.528;13.340;2023-02-07T11:09:39;24.43;;;15.70;;
16577;SDS011;8401;52.528;13.340;2023-02-07T11:12:13;20.40;;;13.13;;
16577;SDS011;8401;52.528;13.340;2023-02-07T11:14:46;18.57;;;12.37;;
16577;SDS011;8401;52.528;13.340;2023-02-07T11:17:28;22.33;;;14.97;;
16577;SDS011;8401;52.528;13.340;2023-02-07T11:19:53;19.80;;;13.73;;
16577;SDS011;8401;52.528;13.340;2023-02-07T11:22:20;21.17;;;13.50;;
16577;SDS011;8401;52.528;13.340;2023-02-07T11:24:50;24.17;;;13.73;;
16577;SDS011;8401;52.528;13.340;2023-02-07T11:27:23;23.73;;;13.90;;
16577;SDS011;8401;52.528;13.340;2023-02-07T11:29:54;25.63;;;14.50;;
16577;SDS011;8401;52.528;13.340;2023-02-07T11:32:22;22.43;;;12.93;;
16577;SDS011;8401;52.528;13.340;2023-02-07T11:34:50;19.50;;;13.37;;
16577;SDS011;8401;52.528;13.340;2023-02-07T11:37:38;21.07;;;13.20;;
16577;SDS011;8401;52.528;13.340;2023-02-07T11:43:14;20.13;;;12.90;;
16577;SDS011;8401;52.528;13.340;2023-02-07T11:45:42;21.20;;;13.67;;
16577;SDS011;8401;52.528;13.340;2023-02-07T11:50:44;19.00;;;13.43;;
16577;SDS011;8401;52.528;13.340;2023-02-07T11:53:27;19.67;;;12.63;;
16577;SDS011;8401;52.528;13.340;2023-02-07T11:56:03;24.10;;;13.23;;
16577;SDS011;8401;52.528;13.340;2023-02-07T12:01:01;22.97;;;13.30;;
16577;SDS011;8401;52.528;13.340;2023-02-07T12:03:33;20.17;;;13.90;;
16577;SDS011;8401;52.528;13.340;2023-02-07T12:06:07;25.03;;;14.23;;
16577;SDS011;8401;52.528;13.340;2023-02-07T12:08:39;21.57;;;12.77;;
16577;SDS011;8401;52.528;13.340;2023-02-07T12:11:08;20.20;;;12.87;;
16577;SDS011;8401;52.528;13.340;2023-02-07T12:13:42;18.43;;;13.03;;
16577;SDS011;8401;52.528;13.340;2023-02-07T12:16:19;21.20;;;13.00;;
16577;SDS011;8401;52.528;13.340;2023-02-07T12:18:53;17.33;;;12.10;;
16577;SDS011;8401;52.528;13.340;2023-02-07T12:21:35;18.83;;;13.17;;
16577;SDS011;8401;52.528;13.340;2023-02-07T12:24:22;22.53;;;13.03;;
16577;SDS011;8401;52.528;13.340;2023-02-07T12:35:13;19.37;;;12.67;;
16577;SDS011;8401;52.528;13.340;2023-02-07T12:37:54;17.70;;;11.53;;
16577;SDS011;8401;52.528;13.340;2023-02-07T12:40:40;19.90;;;13.07;;
16577;SDS011;8401;52.528;13.340;2023-02-07T12:43:11;19.37;;;12.40;;
16577;SDS011;8401;52.528;13.340;2023-02-07T12:54:14;20.73;;;11.53;;
16577;SDS011;8401;52.528;13.340;2023-02-07T12:56:41;18.53;;;11.23;;
16577;SDS011;8401;52.528;13.340;2023-02-07T13:05:18;17.33;;;11.33;;
16577;SDS011;8401;52.528;13.340;2023-02-07T13:08:53;20.63;;;12.03;;
16577;SDS011;8401;52.528;13.340;2023-02-07T13:11:03;18.37;;;10.67;;
16577;SDS011;8401;52.528;13.340;2023-02-07T13:16:19;19.07;;;11.13;;
16577;SDS011;8401;52.528;13.340;2023-02-07T13:19:04;17.03;;;11.03;;
16577;SDS011;8401;52.528;13.340;2023-02-07T13:21:51;16.20;;;9.97;;
16577;SDS011;8401;52.528;13.340;2023-02-07T13:24:29;15.90;;;10.20;;
16577;SDS011;8401;52.528;13.340;2023-02-07T13:26:59;17.50;;;10.07;;
16577;SDS011;8401;52.528;13.340;2023-02-07T13:29:29;18.50;;;10.83;;
16577;SDS011;8401;52.528;13.340;2023-02-07T13:31:59;19.93;;;12.03;;
16577;SDS011;8401;52.528;13.340;2023-02-07T13:34:29;17.20;;;10.43;;
16577;SDS011;8401;52.528;13.340;2023-02-07T13:36:59;16.77;;;11.37;;
16577;SDS011;8401;52.528;13.340;2023-02-07T13:39:39;16.10;;;10.43;;
16577;SDS011;8401;52.528;13.340;2023-02-07T13:48:16;16.97;;;10.50;;
16577;SDS011;8401;52.528;13.340;2023-02-07T13:51:02;16.03;;;10.70;;
16577;SDS011;8401;52.528;13.340;2023-02-07T13:53:41;17.70;;;10.40;;
16577;SDS011;8401;52.528;13.340;2023-02-07T13:56:28;15.60;;;10.07;;
16577;SDS011;8401;52.528;13.340;2023-02-07T13:59:33;14.93;;;9.77;;
16577;SDS011;8401;52.528;13.340;2023-02-07T14:02:04;17.80;;;11.07;;
16577;SDS011;8401;52.528;13.340;2023-02-07T14:04:52;17.17;;;10.57;;
16577;SDS011;8401;52.528;13.340;2023-02-07T14:07:20;18.20;;;10.97;;
16577;SDS011;8401;52.528;13.340;2023-02-07T14:09:50;14.47;;;10.00;;
16577;SDS011;8401;52.528;13.340;2023-02-07T14:12:17;16.60;;;10.43;;
16577;SDS011;8401;52.528;13.340;2023-02-07T14:14:50;17.73;;;9.97;;
16577;SDS011;8401;52.528;13.340;2023-02-07T14:19:52;15.97;;;9.60;;
16577;SDS011;8401;52.528;13.340;2023-02-07T14:25:20;17.10;;;9.97;;
16577;SDS011;8401;52.528;13.340;2023-02-07T14:30:37;30.07;;;19.97;;
16577;SDS011;8401;52.528;13.340;2023-02-07T14:33:33;18.40;;;10.80;;
16577;SDS011;8401;52.528;13.340;2023-02-07T14:36:05;13.27;;;9.13;;
16577;SDS011;8401;52.528;13.340;2023-02-07T14:39:05;14.30;;;9.00;;
16577;SDS011;8401;52.528;13.340;2023-02-07T14:41:51;14.53;;;8.47;;
16577;SDS011;8401;52.528;13.340;2023-02-07T14:46:52;14.77;;;9.27;;
16577;SDS011;8401;52.528;13.340;2023-02-07T14:49:35;15.70;;;10.10;;
16577;SDS011;8401;52.528;13.340;2023-02-07T14:52:10;15.07;;;9.43;;
16577;SDS011;8401;52.528;13.340;2023-02-07T15:02:33;13.93;;;8.43;;
16577;SDS011;8401;52.528;13.340;2023-02-07T15:05:15;16.63;;;9.53;;
16577;SDS011;8401;52.528;13.340;2023-02-07T15:07:48;13.67;;;8.90;;
16577;SDS011;8401;52.528;13.340;2023-02-07T15:12:51;15.47;;;9.67;;
16577;SDS011;8401;52.528;13.340;2023-02-07T15:15:20;17.47;;;9.27;;
16577;SDS011;8401;52.528;13.340;2023-02-07T15:17:49;14.67;;;9.70;;
16577;SDS011;8401;52.528;13.340;2023-02-07T15:20:17;13.37;;;9.10;;
16577;SDS011;8401;52.528;13.340;2023-02-07T15:22:53;16.07;;;8.90;;
16577;SDS011;8401;52.528;13.340;2023-02-07T15:25:20;16.10;;;9.40;;
16577;SDS011;8401;52.528;13.340;2023-02-07T15:30:28;12.70;;;8.57;;
16577;SDS011;8401;52.528;13.340;2023-02-07T15:32:54;13.47;;;8.70;;
16577;SDS011;8401;52.528;13.340;2023-02-07T15:35:21;15.33;;;9.20;;
16577;SDS011;8401;52.528;13.340;2023-02-07T15:37:51;16.53;;;9.07;;
16577;SDS011;8401;52.528;13.340;2023-02-07T15:40:18;15.37;;;10.10;;
16577;SDS011;8401;52.528;13.340;2023-02-07T15:42:49;13.07;;;9.07;;
16577;SDS011;8401;52.528;13.340;2023-02-07T15:45:24;16.30;;;9.97;;
16577;SDS011;8401;52.528;13.340;2023-02-07T15:47:55;14.47;;;9.90;;
16577;SDS011;8401;52.528;13.340;2023-02-07T15:50:26;13.10;;;9.03;;
16577;SDS011;8401;52.528;13.340;2023-02-07T15:53:01;14.57;;;9.10;;
16577;SDS011;8401;52.528;13.340;2023-02-07T15:55:31;14.27;;;9.07;;
16577;SDS011;8401;52.528;13.340;2023-02-07T15:57:58;14.13;;;9.70;;
16577;SDS011;8401;52.528;13.340;2023-02-07T16:00:26;16.40;;;9.60;;
16577;SDS011;8401;52.528;13.340;2023-02-07T16:02:59;15.90;;;9.10;;
16577;SDS011;8401;52.528;13.340;2023-02-07T16:05:28;16.17;;;9.77;;
16577;SDS011;8401;52.528;13.340;2023-02-07T16:07:57;14.27;;;9.20;;
16577;SDS011;8401;52.528;13.340;2023-02-07T16:10:37;16.40;;;9.87;;
16577;SDS011;8401;52.528;13.340;2023-02-07T16:13:10;15.70;;;10.23;;
16577;SDS011;8401;52.528;13.340;2023-02-07T16:15:50;17.30;;;11.03;;
16577;SDS011;8401;52.528;13.340;2023-02-07T16:18:34;17.40;;;10.30;;
16577;SDS011;8401;52.528;13.340;2023-02-07T16:21:02;17.53;;;10.53;;
16577;SDS011;8401;52.528;13.340;2023-02-07T16:23:30;31.83;;;11.53;;
16577;SDS011;8401;52.528;13.340;2023-02-07T16:26:00;14.90;;;9.57;;
16577;SDS011;8401;52.528;13.340;2023-02-07T16:28:28;19.17;;;11.10;;
16577;SDS011;8401;52.528;13.340;2023-02-07T16:30:54;16.63;;;9.80;;
16577;SDS011;8401;52.528;13.340;2023-02-07T16:33:19;16.07;;;9.73;;
16577;SDS011;8401;52.528;13.340;2023-02-07T16:35:45;19.37;;;10.73;;
16577;SDS011;8401;52.528;13.340;2023-02-07T16:38:11;17.97;;;10.23;;
16577;SDS011;8401;52.528;13.340;2023-02-07T16:40:36;19.40;;;10.73;;
16577;SDS011;8401;52.528;13.340;2023-02-07T16:43:02;15.73;;;10.53;;
16577;SDS011;8401;52.528;13.340;2023-02-07T16:45:30;17.40;;;9.90;;